Time;durP1;ratioP1;P1;durP2;ratioP2;P2;SDS_P1;SDS_P2;PMS_P1;PMS_P2;Temp;Humidity;BMP_temperature;BMP_pressure;BME280_temperature;BME280_humidity;BME280_pressure;Samples;Min_cycle;Max_cycle;Signal;HPM_P1;HPM_P2
2022/11/08 00:01:44;;;;;;;4.35;0.68;;;22.60;99.90;;;;;;5035128;28;20579;-80
2022/11/08 00:04:16;;;;;;;1.95;0.47;;;22.50;99.90;;;;;;5034508;28;20555;-80
2022/11/08 00:15:08;;;;;;;2.78;0.73;;;22.90;99.90;;;;;;5033271;28;20212;-80
2022/11/08 00:17:42;;;;;;;1.23;0.45;;;23.10;99.90;;;;;;5036049;28;20197;-80
2022/11/08 00:20:13;;;;;;;4.80;0.57;;;23.30;99.90;;;;;;5039041;28;20197;-81
2022/11/08 00:22:44;;;;;;;2.25;0.40;;;23.40;99.90;;;;;;5044598;28;20333;-81
2022/11/08 00:25:15;;;;;;;1.88;0.63;;;23.60;99.90;;;;;;5055985;28;20218;-80
2022/11/08 00:27:46;;;;;;;1.55;0.50;;;23.80;99.90;;;;;;5060273;28;20188;-80
2022/11/08 00:30:17;;;;;;;1.70;0.40;;;23.80;99.90;;;;;;5067776;28;20231;-81
2022/11/08 00:32:50;;;;;;;2.97;0.80;;;23.90;99.90;;;;;;5084497;28;20533;-81
2022/11/08 00:35:21;;;;;;;3.03;0.60;;;24.00;99.90;;;;;;5063863;28;20644;-81
2022/11/08 00:37:53;;;;;;;3.03;0.68;;;24.10;99.90;;;;;;5053598;28;20199;-80
2022/11/08 00:40:24;;;;;;;5.07;0.73;;;24.10;99.90;;;;;;5084090;28;20209;-80
2022/11/08 00:42:55;;;;;;;2.65;0.50;;;24.00;99.90;;;;;;5059287;28;20200;-80
2022/11/08 00:45:26;;;;;;;2.88;0.77;;;23.90;99.90;;;;;;5062423;28;20238;-79
2022/11/08 00:47:59;;;;;;;2.00;0.60;;;24.00;99.90;;;;;;5060565;28;20214;-79
2022/11/08 00:50:30;;;;;;;2.80;0.68;;;24.00;99.90;;;;;;5056971;28;20219;-79
2022/11/08 00:53:02;;;;;;;4.32;0.98;;;24.20;99.90;;;;;;5053271;28;20677;-79
2022/11/08 00:55:32;;;;;;;1.88;0.38;;;24.40;99.90;;;;;;5066847;28;20192;-79
2022/11/08 00:58:04;;;;;;;2.17;0.60;;;24.50;99.90;;;;;;5060772;28;20247;-79
2022/11/08 01:00:35;;;;;;;5.90;1.02;;;24.60;99.90;;;;;;5056186;28;20279;-80
2022/11/08 01:03:20;;;;;;;4.25;0.95;;;24.80;99.90;;;;;;5049201;28;20188;-80
2022/11/08 01:05:51;;;;;;;9.27;1.58;;;24.70;99.90;;;;;;5052219;28;20233;-81
2022/11/08 01:08:23;;;;;;;4.95;0.70;;;24.50;99.90;;;;;;5052840;28;20204;-81
2022/11/08 01:10:55;;;;;;;4.72;0.85;;;24.40;99.90;;;;;;5063015;28;20565;-80
2022/11/08 01:13:26;;;;;;;3.35;0.55;;;24.40;99.90;;;;;;5066197;28;20200;-81
2022/11/08 01:15:58;;;;;;;3.30;0.50;;;24.30;99.90;;;;;;5062154;28;20673;-81
2022/11/08 01:18:34;;;;;;;3.35;0.60;;;24.20;99.90;;;;;;5052103;28;20211;-80
2022/11/08 01:21:06;;;;;;;4.55;0.60;;;24.20;99.90;;;;;;5056108;28;20201;-81
2022/11/08 01:23:38;;;;;;;3.15;0.40;;;24.10;99.90;;;;;;5066186;28;20220;-81
2022/11/08 01:26:11;;;;;;;2.00;0.50;;;24.00;99.90;;;;;;5057901;28;20221;-81
2022/11/08 01:28:42;;;;;;;3.83;0.50;;;23.90;99.90;;;;;;5057227;28;20610;-81
2022/11/08 01:31:15;;;;;;;2.40;0.60;;;23.90;99.90;;;;;;5049857;28;20193;-81
2022/11/08 01:33:48;;;;;;;1.48;0.45;;;24.00;99.90;;;;;;5054407;28;20766;-80
2022/11/08 01:36:21;;;;;;;2.45;0.60;;;24.00;99.90;;;;;;5062962;28;20208;-80
2022/11/08 01:38:52;;;;;;;2.58;0.57;;;24.00;99.90;;;;;;5063932;28;20607;-79
2022/11/08 01:41:25;;;;;;;1.50;0.47;;;24.20;99.90;;;;;;5055597;28;20231;-80
2022/11/08 01:44:00;;;;;;;0.70;0.40;;;24.30;99.90;;;;;;5062974;28;20219;-79
2022/11/08 01:46:43;;;;;;;5.35;0.90;;;24.50;99.90;;;;;;5068409;28;20223;-79
2022/11/08 01:49:40;;;;;;;2.50;0.40;;;24.70;99.90;;;;;;5065141;28;20196;-79
2022/11/08 01:52:26;;;;;;;2.00;0.60;;;24.60;99.90;;;;;;5058334;28;20253;-79
2022/11/08 01:55:11;;;;;;;5.10;0.70;;;24.60;99.90;;;;;;5061663;28;20270;-80
2022/11/08 01:57:48;;;;;;;1.60;0.50;;;24.70;99.90;;;;;;5052572;28;20716;-78
2022/11/08 02:00:21;;;;;;;2.97;0.60;;;24.70;99.90;;;;;;5092037;28;20187;-81
2022/11/08 02:02:57;;;;;;;2.55;0.50;;;24.50;99.90;;;;;;5072149;28;20196;-80
2022/11/08 02:05:30;;;;;;;3.53;0.50;;;24.50;99.90;;;;;;5061075;28;20223;-79
2022/11/08 02:08:06;;;;;;;1.70;0.32;;;24.50;99.90;;;;;;5070896;28;20296;-76
2022/11/08 02:10:39;;;;;;;3.03;0.57;;;24.50;99.90;;;;;;5064203;28;20227;-78
2022/11/08 02:13:15;;;;;;;5.55;0.55;;;24.50;99.90;;;;;;5061570;28;20196;-80
2022/11/08 02:15:46;;;;;;;2.80;0.50;;;24.50;99.90;;;;;;5066852;28;20199;-80
2022/11/08 02:18:18;;;;;;;3.08;0.50;;;24.50;99.90;;;;;;5072456;28;20290;-79
2022/11/08 02:21:00;;;;;;;1.88;0.50;;;24.70;99.90;;;;;;5057290;28;20283;-79
2022/11/08 02:23:43;;;;;;;2.15;0.60;;;24.80;99.90;;;;;;5051421;28;20718;-79
2022/11/08 02:26:15;;;;;;;1.77;0.60;;;24.70;99.90;;;;;;5035467;28;20592;-78
2022/11/08 02:28:48;;;;;;;2.80;0.60;;;24.60;99.90;;;;;;5034496;28;20205;-78
2022/11/08 02:31:20;;;;;;;4.05;0.47;;;24.70;99.90;;;;;;5038314;28;20193;-80
2022/11/08 02:33:53;;;;;;;2.40;0.70;;;24.90;99.90;;;;;;5038709;28;20216;-81
2022/11/08 02:36:26;;;;;;;2.30;0.43;;;25.00;99.90;;;;;;5033897;28;20689;-79
2022/11/08 02:39:00;;;;;;;3.63;0.70;;;24.90;99.90;;;;;;5036811;28;20220;-80
2022/11/08 02:41:31;;;;;;;2.08;0.60;;;24.80;99.90;;;;;;5053156;28;20212;-81
2022/11/08 02:44:03;;;;;;;2.08;0.60;;;25.00;99.90;;;;;;5058066;28;20213;-79
2022/11/08 02:46:34;;;;;;;3.17;0.73;;;25.10;99.90;;;;;;5032627;28;20221;-79
2022/11/08 02:49:05;;;;;;;1.35;0.50;;;25.00;99.90;;;;;;5037181;28;20217;-80
2022/11/08 02:51:36;;;;;;;3.40;0.50;;;25.00;99.90;;;;;;5050844;28;20279;-79
2022/11/08 02:54:08;;;;;;;3.20;0.52;;;24.80;99.90;;;;;;5034343;28;20204;-80
2022/11/08 02:56:40;;;;;;;2.35;0.60;;;25.00;99.90;;;;;;5039694;28;20219;-80
2022/11/08 02:59:11;;;;;;;3.03;0.57;;;25.20;99.90;;;;;;5062013;28;20199;-79
2022/11/08 03:01:42;;;;;;;2.65;0.70;;;25.20;99.90;;;;;;5054031;28;20233;-80
2022/11/08 03:04:12;;;;;;;4.25;0.65;;;25.30;99.90;;;;;;5071157;28;20200;-79
2022/11/08 03:06:43;;;;;;;1.65;0.52;;;25.50;99.90;;;;;;5057995;28;20224;-80
2022/11/08 03:09:16;;;;;;;2.42;0.60;;;25.50;99.90;;;;;;5040164;28;20204;-81
2022/11/08 03:11:48;;;;;;;2.58;0.40;;;25.70;99.90;;;;;;5038330;28;20209;-80
2022/11/08 03:14:20;;;;;;;1.73;0.60;;;25.80;99.90;;;;;;5045288;28;20203;-81
2022/11/08 03:16:50;;;;;;;0.95;0.55;;;26.00;99.90;;;;;;5051102;28;20195;-80
2022/11/08 03:19:21;;;;;;;1.67;0.70;;;26.10;99.90;;;;;;5038223;28;20217;-81
2022/11/08 03:21:52;;;;;;;1.48;0.50;;;26.10;99.90;;;;;;5037793;28;20209;-80
2022/11/08 03:24:26;;;;;;;3.35;0.60;;;26.00;99.90;;;;;;5068827;28;20224;-80
2022/11/08 03:26:56;;;;;;;2.97;0.50;;;26.10;99.90;;;;;;5069010;28;20239;-80
2022/11/08 03:29:27;;;;;;;1.70;0.50;;;26.10;99.90;;;;;;5061061;28;20369;-79
2022/11/08 03:31:58;;;;;;;2.83;0.60;;;26.10;99.90;;;;;;5054103;28;20222;-80
2022/11/08 03:34:30;;;;;;;1.75;0.60;;;26.30;99.90;;;;;;5067191;28;20700;-79
2022/11/08 03:37:01;;;;;;;3.17;0.52;;;26.20;99.90;;;;;;5053605;28;20223;-80
2022/11/08 03:39:34;;;;;;;5.45;0.77;;;26.20;99.90;;;;;;5057854;28;20256;-79
2022/11/08 03:42:06;;;;;;;2.17;0.55;;;26.30;99.90;;;;;;5066866;28;20574;-80
2022/11/08 03:44:38;;;;;;;2.00;0.50;;;26.30;99.90;;;;;;5062155;28;20307;-80
2022/11/08 03:47:08;;;;;;;2.05;0.45;;;26.30;99.90;;;;;;5064168;28;20224;-80
2022/11/08 03:49:39;;;;;;;7.28;0.60;;;26.20;99.90;;;;;;5074224;28;20196;-80
2022/11/08 03:52:10;;;;;;;2.90;0.45;;;26.00;99.90;;;;;;5064974;28;20699;-80
2022/11/08 03:54:43;;;;;;;3.05;0.60;;;25.80;99.90;;;;;;5050957;28;20223;-79
2022/11/08 03:57:15;;;;;;;1.55;0.38;;;25.90;99.90;;;;;;5050539;28;20560;-80
2022/11/08 03:59:46;;;;;;;1.60;0.50;;;25.80;99.90;;;;;;5044134;28;20245;-80
2022/11/08 04:02:17;;;;;;;4.20;0.70;;;25.80;99.90;;;;;;5050240;28;20200;-80
2022/11/08 04:04:48;;;;;;;1.92;0.60;;;26.10;99.90;;;;;;5066607;28;20200;-79
2022/11/08 04:07:18;;;;;;;3.03;0.70;;;26.10;99.90;;;;;;5063193;28;20245;-79
2022/11/08 04:09:51;;;;;;;2.72;0.50;;;26.20;99.90;;;;;;5060174;28;20212;-79
2022/11/08 04:15:19;;;;;;;3.33;0.30;;;26.40;99.90;;;;;;5069136;28;20187;-79
2022/11/08 04:23:27;;;;;;;3.13;0.50;;;26.40;99.90;;;;;;5041160;28;20338;-79
2022/11/08 04:26:03;;;;;;;2.72;0.50;;;26.50;99.90;;;;;;5037050;28;20223;-78
2022/11/08 04:28:36;;;;;;;4.00;0.70;;;26.40;99.90;;;;;;5033414;28;20315;-80
2022/11/08 04:31:08;;;;;;;3.15;0.57;;;26.30;99.90;;;;;;5037783;28;20198;-79
2022/11/08 04:33:39;;;;;;;3.95;0.40;;;26.40;99.90;;;;;;5038299;28;20207;-79
2022/11/08 04:36:13;;;;;;;4.53;0.60;;;26.60;99.90;;;;;;5033077;28;20216;-79
2022/11/08 04:38:45;;;;;;;2.33;0.40;;;26.50;99.90;;;;;;5031933;28;20685;-80
2022/11/08 04:41:19;;;;;;;2.90;0.63;;;26.70;99.90;;;;;;5045157;28;20204;-80
2022/11/08 04:43:50;;;;;;;3.55;0.65;;;26.60;99.90;;;;;;5039261;28;20219;-79
2022/11/08 04:46:23;;;;;;;2.40;0.40;;;26.40;99.90;;;;;;5046808;28;20220;-79
2022/11/08 04:48:55;;;;;;;3.40;0.50;;;26.40;99.90;;;;;;5034070;28;20197;-79
2022/11/08 04:51:29;;;;;;;2.40;0.50;;;26.40;99.90;;;;;;5038743;28;20201;-79
2022/11/08 04:54:05;;;;;;;1.70;0.40;;;26.30;99.90;;;;;;5038650;28;20235;-80
2022/11/08 04:56:37;;;;;;;2.13;0.60;;;26.50;99.90;;;;;;5046921;28;20196;-79
2022/11/08 04:59:11;;;;;;;2.42;0.50;;;26.50;99.90;;;;;;5033632;28;20201;-78
2022/11/08 05:01:42;;;;;;;2.83;0.70;;;26.70;99.90;;;;;;5028701;28;20212;-78
2022/11/08 05:04:13;;;;;;;1.27;0.43;;;26.70;99.90;;;;;;5029722;28;20291;-79
2022/11/08 05:06:43;;;;;;;4.07;0.50;;;26.80;99.90;;;;;;5028247;28;20221;-79
2022/11/08 05:09:14;;;;;;;3.35;0.70;;;26.90;99.90;;;;;;5038675;28;20300;-78
2022/11/08 05:11:47;;;;;;;0.88;0.40;;;27.00;99.90;;;;;;5049527;28;20200;-77
2022/11/08 05:14:18;;;;;;;3.03;0.63;;;27.30;99.90;;;;;;5030411;28;20209;-79
2022/11/08 05:16:49;;;;;;;4.28;0.60;;;27.30;99.90;;;;;;5035204;28;20197;-78
2022/11/08 05:23:22;;;;;;;3.72;0.60;;;27.40;99.90;;;;;;5037754;28;21130;-79
2022/11/08 05:24:56;;;;;;;3.20;0.63;;;27.80;99.90;;;;;;5012492;28;20224;-80
2022/11/08 05:27:29;;;;;;;3.55;0.70;;;28.00;99.90;;;;;;5033026;28;20229;-80
2022/11/08 05:30:00;;;;;;;2.30;0.45;;;28.20;99.90;;;;;;5052117;28;20561;-79
2022/11/08 05:32:31;;;;;;;1.85;0.50;;;28.00;99.90;;;;;;5032846;28;20200;-79
2022/11/08 05:35:02;;;;;;;3.55;0.70;;;27.70;99.90;;;;;;5032411;28;20720;-79
2022/11/08 05:37:32;;;;;;;3.15;0.47;;;27.40;99.90;;;;;;5049978;28;21911;-80
2022/11/08 05:40:03;;;;;;;3.45;0.55;;;27.50;99.90;;;;;;5047003;28;20575;-80
2022/11/08 05:42:36;;;;;;;3.03;0.55;;;27.80;99.90;;;;;;5036945;28;20201;-80
2022/11/08 05:45:07;;;;;;;4.10;0.40;;;27.90;99.90;;;;;;5025145;28;20226;-79
2022/11/08 05:47:38;;;;;;;2.50;0.50;;;28.10;99.90;;;;;;5048992;28;20232;-79
2022/11/08 05:50:10;;;;;;;2.45;0.65;;;28.10;99.90;;;;;;5034952;28;20733;-77
2022/11/08 05:52:41;;;;;;;3.72;0.60;;;28.50;99.90;;;;;;5051894;28;20207;-77
2022/11/08 05:55:12;;;;;;;3.13;0.80;;;29.00;99.90;;;;;;5044120;28;20666;-80
2022/11/08 05:57:48;;;;;;;3.78;0.57;;;29.30;99.90;;;;;;5056310;28;20220;-80
2022/11/08 06:00:19;;;;;;;2.67;0.60;;;29.40;99.90;;;;;;5040695;28;20663;-79
2022/11/08 06:02:50;;;;;;;3.30;0.50;;;29.30;99.90;;;;;;5033079;28;20254;-79
2022/11/08 06:05:21;;;;;;;3.13;0.70;;;29.30;99.90;;;;;;5047347;28;20220;-80
2022/11/08 06:07:54;;;;;;;2.60;0.57;;;29.20;99.90;;;;;;5036184;28;20225;-80
2022/11/08 06:10:25;;;;;;;2.28;0.50;;;29.40;99.90;;;;;;5039209;28;20275;-78
2022/11/08 06:13:02;;;;;;;1.83;0.50;;;29.20;99.90;;;;;;5038074;28;20205;-79
2022/11/08 06:15:32;;;;;;;4.20;0.65;;;29.10;99.90;;;;;;5044425;28;20607;-80
2022/11/08 06:18:06;;;;;;;2.00;0.60;;;29.40;99.90;;;;;;5038604;28;20201;-80
2022/11/08 06:20:37;;;;;;;2.42;0.40;;;29.30;99.90;;;;;;5038380;28;20612;-79
2022/11/08 06:23:08;;;;;;;3.45;0.70;;;29.20;99.90;;;;;;5039298;28;20673;-80
2022/11/08 06:25:40;;;;;;;5.28;0.65;;;29.40;99.70;;;;;;5039942;28;20193;-79
2022/11/08 06:28:13;;;;;;;7.43;0.75;;;29.20;99.90;;;;;;5037794;28;20221;-80
2022/11/08 06:30:44;;;;;;;2.20;0.80;;;29.40;98.80;;;;;;5041733;28;20204;-81
2022/11/08 06:33:15;;;;;;;2.03;0.60;;;29.40;99.00;;;;;;5047142;28;20197;-81
2022/11/08 06:35:46;;;;;;;2.28;0.50;;;29.10;99.00;;;;;;5048726;28;20197;-80
2022/11/08 06:38:16;;;;;;;2.65;0.77;;;29.40;99.30;;;;;;5050152;28;20211;-81
2022/11/08 06:40:47;;;;;;;2.80;0.55;;;29.70;98.30;;;;;;5043225;28;20571;-81
2022/11/08 06:43:21;;;;;;;3.92;0.60;;;29.90;97.60;;;;;;5036468;28;20289;-80
2022/11/08 06:45:52;;;;;;;3.50;0.50;;;29.80;96.20;;;;;;5041562;28;20698;-81
2022/11/08 06:48:23;;;;;;;2.22;0.50;;;30.10;95.40;;;;;;5035789;28;20606;-80
2022/11/08 06:50:54;;;;;;;4.60;0.70;;;30.00;94.50;;;;;;5052203;28;20695;-80
2022/11/08 06:53:26;;;;;;;1.35;0.50;;;29.80;93.60;;;;;;5049612;28;20276;-83
2022/11/08 06:55:56;;;;;;;0.98;0.43;;;29.60;94.20;;;;;;5043072;28;20284;-80
2022/11/08 06:58:29;;;;;;;2.38;0.57;;;29.30;94.90;;;;;;5043563;28;20205;-80
2022/11/08 07:01:05;;;;;;;2.15;0.50;;;29.30;94.30;;;;;;5046673;28;20205;-80
2022/11/08 07:03:37;;;;;;;1.90;0.50;;;29.40;94.50;;;;;;5035666;28;20192;-80
2022/11/08 07:06:08;;;;;;;3.30;0.40;;;29.40;94.80;;;;;;5041904;28;20303;-79
2022/11/08 07:08:40;;;;;;;3.72;0.60;;;29.70;93.40;;;;;;5033876;28;20230;-78
2022/11/08 07:11:11;;;;;;;2.17;0.50;;;29.70;94.00;;;;;;5037247;28;20762;-79
2022/11/08 07:13:43;;;;;;;1.63;0.55;;;29.50;93.30;;;;;;5046434;28;20200;-78
2022/11/08 07:16:14;;;;;;;2.38;0.63;;;29.50;93.60;;;;;;5053325;28;20192;-79
2022/11/08 07:18:45;;;;;;;3.97;0.70;;;29.20;93.50;;;;;;5057270;28;20203;-78
2022/11/08 07:21:16;;;;;;;5.53;0.50;;;28.80;93.90;;;;;;5043164;28;20254;-79
2022/11/08 07:23:47;;;;;;;2.03;0.40;;;29.10;94.10;;;;;;5053016;28;20260;-79
2022/11/08 07:26:18;;;;;;;2.30;0.63;;;28.70;94.60;;;;;;5066913;28;20215;-80
2022/11/08 07:28:51;;;;;;;2.08;0.50;;;28.20;95.70;;;;;;5050846;28;20586;-79
2022/11/08 07:31:22;;;;;;;2.95;0.50;;;28.00;96.20;;;;;;5053972;28;20197;-80
2022/11/08 07:33:53;;;;;;;1.73;0.55;;;27.70;97.30;;;;;;5054429;28;20196;-80
2022/11/08 07:36:24;;;;;;;1.67;0.43;;;27.20;98.10;;;;;;5055144;28;20221;-80
2022/11/08 07:38:55;;;;;;;2.72;0.60;;;26.90;99.40;;;;;;5058744;28;20674;-80
2022/11/08 07:41:26;;;;;;;2.97;0.55;;;26.50;99.90;;;;;;5054496;28;20243;-81
2022/11/08 07:44:00;;;;;;;4.25;0.50;;;26.10;99.90;;;;;;5050167;28;20690;-80
2022/11/08 07:46:31;;;;;;;3.15;0.60;;;26.00;99.90;;;;;;5053066;28;20200;-80
2022/11/08 07:49:02;;;;;;;3.75;0.82;;;25.70;99.90;;;;;;5051252;28;20723;-80
2022/11/08 07:51:33;;;;;;;1.45;0.60;;;25.40;99.90;;;;;;5066376;28;20220;-80
2022/11/08 07:54:05;;;;;;;1.80;0.82;;;25.10;99.90;;;;;;5071409;28;20658;-80
2022/11/08 07:56:36;;;;;;;1.80;0.88;;;24.90;99.90;;;;;;5059261;28;20287;-81
2022/11/08 07:59:09;;;;;;;4.70;1.20;;;24.70;99.90;;;;;;5066149;28;20269;-81
2022/11/08 08:01:40;;;;;;;6.38;0.85;;;24.50;99.90;;;;;;5071281;28;20672;-81
2022/11/08 08:04:11;;;;;;;3.30;1.00;;;24.20;99.90;;;;;;5051847;28;20195;-81
2022/11/08 08:06:42;;;;;;;5.50;1.02;;;24.00;99.90;;;;;;5069952;28;20195;-81
2022/11/08 08:09:12;;;;;;;5.03;1.10;;;23.90;99.90;;;;;;5061305;28;20236;-80
2022/11/08 08:11:44;;;;;;;4.10;0.70;;;23.80;99.90;;;;;;5051988;28;20196;-80
2022/11/08 08:14:17;;;;;;;3.70;0.90;;;23.60;99.90;;;;;;5060316;28;20204;-82
2022/11/08 08:16:48;;;;;;;4.97;0.70;;;23.50;99.90;;;;;;5069421;28;20761;-80
2022/11/08 08:19:19;;;;;;;3.47;0.57;;;23.40;99.90;;;;;;5068981;28;20275;-80
2022/11/08 08:21:49;;;;;;;2.50;0.60;;;23.30;99.90;;;;;;5068668;28;20278;-80
2022/11/08 08:24:20;;;;;;;2.35;0.70;;;23.20;99.90;;;;;;5046287;28;20233;-82
2022/11/08 08:26:51;;;;;;;1.75;0.70;;;23.10;99.90;;;;;;5030853;28;20268;-81
2022/11/08 08:29:24;;;;;;;2.50;0.50;;;23.00;99.90;;;;;;5030465;28;20203;-81
2022/11/08 08:31:55;;;;;;;1.40;0.75;;;22.80;99.90;;;;;;5044422;28;20648;-82
2022/11/08 08:34:26;;;;;;;2.92;0.70;;;22.80;99.90;;;;;;5038692;28;20216;-80
2022/11/08 08:36:57;;;;;;;1.17;0.55;;;22.80;99.90;;;;;;5045665;28;20241;-81
2022/11/08 08:39:28;;;;;;;2.80;0.70;;;22.70;99.90;;;;;;5050935;28;20197;-80
2022/11/08 08:41:59;;;;;;;4.32;0.70;;;22.60;99.90;;;;;;5037154;28;20231;-81
2022/11/08 08:44:32;;;;;;;2.65;0.70;;;22.60;99.90;;;;;;5030873;28;20197;-81
2022/11/08 08:47:03;;;;;;;1.75;0.60;;;22.50;99.90;;;;;;5036747;28;20639;-81
2022/11/08 08:49:34;;;;;;;2.15;0.73;;;22.40;99.90;;;;;;5031162;28;20686;-81
2022/11/08 08:52:06;;;;;;;1.70;0.60;;;22.40;99.90;;;;;;5051966;28;20224;-81
2022/11/08 08:54:36;;;;;;;3.47;0.63;;;22.40;99.90;;;;;;5055096;28;20291;-81
2022/11/08 08:57:07;;;;;;;4.00;0.73;;;22.30;99.90;;;;;;5054768;28;20196;-81
2022/11/08 08:59:41;;;;;;;2.63;0.60;;;22.20;99.90;;;;;;5035618;28;20211;-81
2022/11/08 09:02:13;;;;;;;4.55;0.80;;;22.20;99.90;;;;;;5034859;28;20240;-81
2022/11/08 09:04:44;;;;;;;4.95;0.85;;;22.20;99.90;;;;;;5037816;28;20200;-81
2022/11/08 09:07:15;;;;;;;5.43;0.90;;;22.20;99.90;;;;;;5053789;28;20228;-81
2022/11/08 09:09:46;;;;;;;2.85;0.65;;;22.20;99.90;;;;;;5055006;28;20260;-81
2022/11/08 09:12:16;;;;;;;5.38;0.70;;;22.20;99.90;;;;;;5061407;28;20200;-81
2022/11/08 09:14:49;;;;;;;5.47;0.77;;;22.20;99.90;;;;;;5065721;28;20237;-81
2022/11/08 09:17:20;;;;;;;1.67;0.60;;;22.10;99.90;;;;;;5035788;28;20211;-81
2022/11/08 09:19:50;;;;;;;2.75;0.85;;;22.10;99.90;;;;;;5034982;28;20209;-81
2022/11/08 09:22:21;;;;;;;3.40;0.90;;;22.10;99.90;;;;;;5033855;28;20198;-81
2022/11/08 09:24:52;;;;;;;4.00;0.73;;;22.10;99.90;;;;;;5056156;28;20199;-80
2022/11/08 09:27:23;;;;;;;2.92;0.63;;;22.10;99.90;;;;;;5074217;28;20308;-81
2022/11/08 09:29:55;;;;;;;1.27;0.50;;;22.00;99.90;;;;;;5054227;28;20571;-81
2022/11/08 09:32:27;;;;;;;3.05;0.77;;;21.90;99.90;;;;;;5067340;28;20195;-81
2022/11/08 09:34:58;;;;;;;2.80;0.70;;;21.90;99.90;;;;;;5072621;28;20204;-81
2022/11/08 09:37:31;;;;;;;4.10;0.80;;;21.80;99.90;;;;;;5076099;28;20214;-81
2022/11/08 09:40:02;;;;;;;4.13;0.90;;;21.80;99.90;;;;;;5052694;28;20673;-81
2022/11/08 09:42:56;;;;;;;3.85;0.80;;;21.80;99.90;;;;;;5056407;28;20203;-81
2022/11/08 09:45:37;;;;;;;1.88;0.70;;;21.90;99.90;;;;;;5055866;28;20218;-81
2022/11/08 09:48:09;;;;;;;2.28;0.63;;;21.70;99.90;;;;;;5062612;28;20222;-81
2022/11/08 09:53:38;;;;;;;3.10;0.75;;;21.70;99.90;;;;;;5092486;28;20195;-81
2022/11/08 09:56:17;;;;;;;3.58;0.75;;;21.70;99.90;;;;;;5076004;28;20654;-81
2022/11/08 09:59:00;;;;;;;5.50;0.65;;;21.70;99.90;;;;;;5084806;28;20192;-80
2022/11/08 10:01:47;;;;;;;2.90;0.70;;;21.70;99.90;;;;;;5085172;28;20191;-82
2022/11/08 10:04:26;;;;;;;1.48;0.52;;;21.70;99.90;;;;;;5062496;28;20203;-81
2022/11/08 10:07:18;;;;;;;2.08;0.60;;;21.80;99.90;;;;;;5074118;28;20244;-82
2022/11/08 10:10:13;;;;;;;3.13;0.70;;;21.60;99.90;;;;;;5067570;28;20288;-81
2022/11/08 10:12:59;;;;;;;6.70;0.50;;;21.70;99.90;;;;;;5066924;28;20198;-82
2022/11/08 10:15:39;;;;;;;4.35;0.70;;;21.60;99.90;;;;;;5057063;28;20229;-82
2022/11/08 10:21:41;;;;;;;1.80;0.40;;;21.60;99.90;;;;;;5073122;28;20192;-81
2022/11/08 10:24:24;;;;;;;2.47;0.50;;;21.60;99.90;;;;;;5078754;28;20235;-81
2022/11/08 10:26:56;;;;;;;2.95;0.60;;;21.70;99.90;;;;;;5078246;28;20192;-81
2022/11/08 10:29:33;;;;;;;3.53;0.60;;;21.70;99.90;;;;;;5064980;28;20227;-81
2022/11/08 10:32:14;;;;;;;2.00;0.57;;;21.70;99.90;;;;;;5053586;28;20571;-81
2022/11/08 10:35:13;;;;;;;4.60;0.70;;;21.60;99.90;;;;;;5089979;28;20223;-82
2022/11/08 10:38:07;;;;;;;3.13;0.63;;;21.60;99.90;;;;;;5069814;28;20249;-82
2022/11/08 10:40:49;;;;;;;4.25;0.52;;;21.60;99.90;;;;;;5077192;28;20243;-83
2022/11/08 10:43:36;;;;;;;3.03;0.60;;;21.60;99.90;;;;;;5077291;28;20199;-82
2022/11/08 10:46:17;;;;;;;3.72;0.75;;;21.60;99.90;;;;;;5076424;28;20212;-82
2022/11/08 10:48:49;;;;;;;2.88;0.70;;;21.60;99.90;;;;;;5080381;28;20304;-83
2022/11/08 10:51:22;;;;;;;2.95;0.60;;;21.60;99.90;;;;;;5074568;28;20192;-83
2022/11/08 10:53:57;;;;;;;5.30;0.73;;;21.50;99.90;;;;;;5087041;28;20303;-82
2022/11/08 10:56:32;;;;;;;3.17;0.73;;;21.60;99.90;;;;;;5080238;28;20254;-82
2022/11/08 10:59:06;;;;;;;3.53;0.70;;;21.60;99.90;;;;;;5127610;23;20292;-81
2022/11/08 11:01:43;;;;;;;2.22;0.50;;;21.60;99.90;;;;;;5093777;28;20283;-81
2022/11/08 11:04:34;;;;;;;1.88;0.50;;;21.60;99.90;;;;;;5076209;28;20238;-83
2022/11/08 11:07:27;;;;;;;2.03;0.60;;;21.50;99.90;;;;;;5111952;28;20251;-82
2022/11/08 11:10:19;;;;;;;2.38;0.68;;;21.60;99.90;;;;;;5095680;28;20580;-81
2022/11/08 11:13:07;;;;;;;4.05;0.70;;;21.60;99.90;;;;;;5106935;28;20245;-81
2022/11/08 11:15:45;;;;;;;3.35;0.60;;;21.60;99.90;;;;;;5094508;28;20305;-81
2022/11/08 11:18:42;;;;;;;1.40;0.52;;;21.60;99.90;;;;;;5101014;28;20306;-81
2022/11/08 11:21:26;;;;;;;2.10;0.50;;;21.50;99.90;;;;;;5097725;28;20278;-81
2022/11/08 11:23:59;;;;;;;5.00;0.77;;;21.50;99.90;;;;;;5096265;28;20234;-81
2022/11/08 11:26:46;;;;;;;1.83;0.55;;;21.50;99.90;;;;;;5095154;28;20301;-81
2022/11/08 11:29:26;;;;;;;3.40;0.70;;;21.40;99.90;;;;;;5099060;28;20230;-82
2022/11/08 11:34:50;;;;;;;3.85;0.75;;;21.40;99.90;;;;;;5088689;28;20709;-81
2022/11/08 11:37:41;;;;;;;3.45;0.60;;;21.30;99.90;;;;;;5078547;28;20737;-81
2022/11/08 11:40:21;;;;;;;1.73;0.50;;;21.30;99.90;;;;;;5078595;28;20278;-78
2022/11/08 11:43:04;;;;;;;2.20;0.90;;;21.30;99.90;;;;;;5085890;28;20206;-80
2022/11/08 11:45:44;;;;;;;3.83;0.70;;;21.30;99.90;;;;;;5079303;28;20201;-81
2022/11/08 11:48:20;;;;;;;3.67;0.80;;;21.30;99.90;;;;;;5077879;28;20218;-80
2022/11/08 11:50:51;;;;;;;3.60;0.75;;;21.20;99.90;;;;;;5087958;28;20559;-80
2022/11/08 11:53:25;;;;;;;2.92;0.70;;;21.30;99.90;;;;;;5085002;28;20199;-81
2022/11/08 11:56:22;;;;;;;1.73;0.50;;;21.20;99.90;;;;;;5082950;28;20222;-81
2022/11/08 11:59:29;;;;;;;1.95;0.63;;;21.20;99.90;;;;;;5091982;28;20236;-80
2022/11/08 12:02:25;;;;;;;3.30;0.80;;;21.20;99.90;;;;;;5065173;28;20212;-80
2022/11/08 12:05:27;;;;;;;2.60;0.68;;;21.20;99.90;;;;;;5104762;27;20637;-80
2022/11/08 12:08:04;;;;;;;1.90;0.47;;;21.30;99.90;;;;;;5107257;28;20648;-81
2022/11/08 12:10:51;;;;;;;2.20;0.70;;;21.20;99.90;;;;;;5103975;28;20241;-81
2022/11/08 12:13:29;;;;;;;3.90;1.00;;;21.20;99.90;;;;;;5096185;28;20199;-80
2022/11/08 12:16:21;;;;;;;2.95;0.52;;;21.10;99.90;;;;;;5098673;28;20196;-81
2022/11/08 12:22:07;;;;;;;1.63;0.40;;;21.10;99.90;;;;;;5106786;28;20252;-81
2022/11/08 12:24:51;;;;;;;3.28;0.80;;;21.10;99.90;;;;;;5102793;28;20195;-80
2022/11/08 12:27:33;;;;;;;2.28;0.50;;;21.10;99.90;;;;;;5116555;27;20222;-80
2022/11/08 12:30:10;;;;;;;2.05;0.57;;;21.00;99.90;;;;;;5107326;28;20806;-81
2022/11/08 12:33:02;;;;;;;4.32;0.75;;;21.00;99.90;;;;;;5104551;28;20195;-80
2022/11/08 12:35:42;;;;;;;2.92;0.63;;;21.00;99.90;;;;;;5107188;28;20195;-80
2022/11/08 12:38:21;;;;;;;3.25;0.55;;;21.00;99.90;;;;;;5093316;28;20198;-79
2022/11/08 12:41:01;;;;;;;3.13;0.77;;;21.00;99.90;;;;;;5098101;28;20671;-80
2022/11/08 12:44:00;;;;;;;3.78;0.70;;;21.00;99.90;;;;;;5103217;28;20228;-79
2022/11/08 12:46:38;;;;;;;1.80;0.50;;;20.90;99.90;;;;;;5103643;28;20672;-80
2022/11/08 12:49:29;;;;;;;2.90;0.70;;;21.00;99.90;;;;;;5095601;28;20700;-80
2022/11/08 12:52:11;;;;;;;5.03;1.05;;;21.00;99.90;;;;;;5109341;28;20700;-80
2022/11/08 12:54:47;;;;;;;2.88;0.52;;;20.90;99.90;;;;;;5108567;28;20197;-80
2022/11/08 12:57:26;;;;;;;4.03;0.60;;;20.90;99.90;;;;;;5098967;28;20564;-80
2022/11/08 13:00:04;;;;;;;4.15;0.80;;;20.90;99.90;;;;;;5108817;22;20204;-80
2022/11/08 13:02:38;;;;;;;3.53;0.68;;;20.90;99.90;;;;;;5065523;28;20203;-79
2022/11/08 13:05:20;;;;;;;3.60;0.80;;;20.90;99.90;;;;;;5050084;28;20207;-80
2022/11/08 13:08:02;;;;;;;5.88;0.63;;;20.80;99.90;;;;;;5053711;28;20533;-80
2022/11/08 13:10:42;;;;;;;5.88;1.02;;;20.80;99.90;;;;;;5050381;28;20201;-80
2022/11/08 13:13:30;;;;;;;2.03;0.70;;;20.80;99.90;;;;;;5056814;28;20207;-80
2022/11/08 13:16:13;;;;;;;1.65;0.60;;;20.80;99.90;;;;;;5055958;28;20196;-80
2022/11/08 13:18:49;;;;;;;3.28;0.70;;;20.70;99.90;;;;;;5068181;28;20278;-79
2022/11/08 13:21:40;;;;;;;2.45;0.73;;;20.70;99.90;;;;;;5062926;28;20208;-81
2022/11/08 13:24:37;;;;;;;3.08;0.70;;;20.60;99.90;;;;;;5055557;28;20188;-80
2022/11/08 13:27:27;;;;;;;2.55;0.50;;;20.60;99.90;;;;;;5034796;28;20203;-79
2022/11/08 13:30:04;;;;;;;2.28;0.60;;;20.50;99.90;;;;;;5063271;28;20277;-79
2022/11/08 13:32:47;;;;;;;3.40;0.55;;;20.60;99.90;;;;;;5074228;28;20202;-80
2022/11/08 13:35:26;;;;;;;2.85;0.75;;;20.50;99.90;;;;;;5068643;28;20219;-79
2022/11/08 13:38:14;;;;;;;1.67;0.50;;;20.50;99.90;;;;;;5055527;28;20201;-80
2022/11/08 13:41:05;;;;;;;3.35;0.60;;;20.50;99.90;;;;;;5059072;28;20204;-80
2022/11/08 13:43:39;;;;;;;2.03;0.68;;;20.50;99.90;;;;;;5055345;28;20200;-79
2022/11/08 13:46:49;;;;;;;4.60;0.60;;;20.50;99.90;;;;;;5062564;28;20589;-80
2022/11/08 13:49:24;;;;;;;3.30;0.60;;;20.50;99.90;;;;;;5036071;28;20250;-81
2022/11/08 13:52:31;;;;;;;2.70;0.68;;;20.40;99.90;;;;;;5055115;28;20203;-80
2022/11/08 13:55:04;;;;;;;4.85;0.80;;;20.40;99.90;;;;;;5038551;28;20201;-80
2022/11/08 13:58:02;;;;;;;4.07;0.77;;;20.40;99.90;;;;;;5060165;28;20657;-80
2022/11/08 14:00:46;;;;;;;5.10;0.80;;;20.30;99.90;;;;;;5067691;28;20244;-81
2022/11/08 14:03:53;;;;;;;2.88;0.70;;;20.30;99.90;;;;;;5057684;28;20204;-81